createdAt,value
2022-10-04T00:00:37.524Z,2.47
2022-10-04T00:03:16.825Z,2.30
2022-10-04T00:05:49.014Z,2.35
2022-10-04T00:08:32.055Z,2.40
2022-10-04T00:11:13.166Z,2.13
2022-10-04T00:13:41.541Z,2.42
2022-10-04T00:16:21.338Z,2.35
2022-10-04T00:18:48.349Z,3.65
2022-10-04T00:21:15.200Z,2.80
2022-10-04T00:23:45.213Z,2.30
2022-10-04T00:26:38.566Z,2.30
2022-10-04T00:29:30.376Z,3.60
2022-10-04T00:32:12.596Z,2.80
2022-10-04T00:34:48.848Z,2.75
2022-10-04T00:37:18.049Z,3.10
2022-10-04T00:40:02.981Z,2.63
2022-10-04T00:42:47.981Z,2.55
2022-10-04T00:45:28.145Z,2.50
2022-10-04T00:48:04.415Z,2.40
2022-10-04T00:50:44.095Z,2.70
2022-10-04T00:53:22.408Z,3.25
2022-10-04T00:55:51.613Z,2.92
2022-10-04T00:58:24.343Z,2.40
2022-10-04T01:00:53.924Z,2.38
2022-10-04T01:03:39.794Z,2.50
2022-10-04T01:06:10.875Z,2.83
2022-10-04T01:09:03.209Z,2.55
2022-10-04T01:11:47.669Z,2.20
2022-10-04T01:14:29.528Z,2.15
2022-10-04T01:16:56.543Z,2.40
2022-10-04T01:19:24.538Z,2.13
2022-10-04T01:22:14.738Z,2.42
2022-10-04T01:24:44.169Z,2.08
2022-10-04T01:27:37.721Z,2.72
2022-10-04T01:30:09.545Z,2.28
2022-10-04T01:32:38.559Z,2.20
2022-10-04T01:35:08.335Z,2.40
2022-10-04T01:37:35.440Z,2.33
2022-10-04T01:40:02.650Z,3.30
2022-10-04T01:43:00.396Z,2.63
2022-10-04T01:45:46.891Z,2.80
2022-10-04T01:48:17.984Z,2.90
2022-10-04T01:50:55.697Z,2.92
2022-10-04T01:53:37.206Z,2.97
2022-10-04T01:56:13.677Z,2.70
2022-10-04T01:58:45.746Z,2.67
2022-10-04T02:01:18.241Z,2.80
2022-10-04T02:04:22.288Z,3.25
2022-10-04T02:06:54.287Z,2.63
2022-10-04T02:09:32.780Z,3.08
2022-10-04T02:12:01.121Z,3.15
2022-10-04T02:14:33.343Z,3.10
2022-10-04T02:17:03.286Z,3.13
2022-10-04T02:19:37.724Z,3.60
2022-10-04T02:24:40.174Z,3.30
2022-10-04T02:27:07.141Z,3.30
2022-10-04T02:29:34.279Z,3.22
2022-10-04T02:32:22.127Z,4.03
2022-10-04T02:34:49.284Z,3.60
2022-10-04T02:37:16.655Z,3.33
2022-10-04T02:39:45.620Z,3.58
2022-10-04T02:42:21.820Z,3.60
2022-10-04T02:45:00.232Z,3.90
2022-10-04T02:47:32.214Z,3.60
2022-10-04T02:50:04.502Z,5.03
2022-10-04T02:52:36.769Z,3.30
2022-10-04T02:55:18.767Z,3.40
2022-10-04T02:57:46.090Z,3.85
2022-10-04T03:00:12.829Z,3.50
2022-10-04T03:02:40.353Z,4.15
2022-10-04T03:05:10.709Z,4.03
2022-10-04T03:07:39.130Z,3.92
2022-10-04T03:10:12.492Z,4.28
2022-10-04T03:12:42.837Z,3.80
2022-10-04T03:15:13.057Z,3.80
2022-10-04T03:17:44.044Z,4.22
2022-10-04T03:20:16.200Z,3.75
2022-10-04T03:22:47.265Z,4.10
2022-10-04T03:25:26.349Z,3.80
2022-10-04T03:27:54.278Z,3.80
2022-10-04T03:30:21.250Z,3.92
2022-10-04T03:32:49.255Z,3.85
2022-10-04T03:35:33.524Z,3.45
2022-10-04T03:38:03.293Z,3.92
2022-10-04T03:40:33.248Z,3.58
2022-10-04T03:43:01.735Z,3.80
2022-10-04T03:45:29.571Z,3.58
2022-10-04T03:48:05.085Z,3.58
2022-10-04T03:50:47.142Z,3.30
2022-10-04T03:53:45.142Z,3.30
2022-10-04T03:56:17.673Z,3.83
2022-10-04T03:58:45.462Z,3.20
2022-10-04T04:01:27.641Z,3.55
2022-10-04T04:04:01.554Z,3.10
2022-10-04T04:06:40.573Z,3.05
2022-10-04T04:09:09.038Z,3.33
2022-10-04T04:11:36.694Z,3.60
2022-10-04T04:14:11.652Z,3.60
2022-10-04T04:16:39.377Z,3.28
2022-10-04T04:19:13.395Z,3.55
2022-10-04T04:21:41.415Z,3.47
2022-10-04T04:24:32.258Z,3.30
2022-10-04T04:27:06.104Z,2.70
2022-10-04T04:29:59.554Z,2.85
2022-10-04T04:32:40.303Z,3.58
2022-10-04T04:35:20.313Z,3.60
2022-10-04T04:38:16.850Z,3.10
2022-10-04T04:40:44.344Z,3.10
2022-10-04T04:43:16.818Z,4.18
2022-10-04T04:45:44.109Z,3.22
2022-10-04T04:48:16.196Z,3.30
2022-10-04T04:50:48.340Z,2.80
2022-10-04T04:53:20.316Z,3.28
2022-10-04T04:56:03.945Z,2.88
2022-10-04T04:58:33.193Z,3.40
2022-10-04T05:01:04.394Z,2.67
2022-10-04T05:03:33.225Z,2.90
2022-10-04T05:06:03.076Z,3.15
2022-10-04T05:08:33.391Z,3.38
2022-10-04T05:11:12.108Z,3.40
2022-10-04T05:13:47.712Z,2.90
2022-10-04T05:16:21.241Z,3.70
2022-10-04T05:18:48.901Z,3.00
2022-10-04T05:21:23.868Z,2.88
2022-10-04T05:23:51.935Z,3.05
2022-10-04T05:26:27.620Z,2.83
2022-10-04T05:28:59.651Z,2.67
2022-10-04T05:32:03.475Z,3.40
2022-10-04T05:34:37.876Z,2.70
2022-10-04T05:37:37.963Z,3.22
2022-10-04T05:40:14.059Z,2.80
2022-10-04T05:42:46.798Z,3.25
2022-10-04T05:45:30.958Z,3.05
2022-10-04T05:48:01.147Z,2.97
2022-10-04T05:50:35.525Z,2.95
2022-10-04T05:55:55.346Z,3.10
2022-10-04T05:58:37.122Z,2.85
2022-10-04T06:01:28.213Z,3.13
2022-10-04T06:04:13.917Z,2.78
2022-10-04T06:06:55.911Z,2.42
2022-10-04T06:09:51.413Z,2.50
2022-10-04T06:12:39.200Z,2.60
2022-10-04T06:15:26.139Z,2.92
2022-10-04T06:18:23.915Z,4.32
2022-10-04T06:21:12.160Z,2.60
2022-10-04T06:23:51.202Z,2.22
2022-10-04T06:32:53.985Z,2.83
2022-10-04T06:35:35.948Z,2.35
2022-10-04T06:38:22.347Z,2.15
2022-10-04T06:41:04.621Z,1.98
2022-10-04T06:44:06.463Z,2.30
2022-10-04T06:46:52.720Z,1.92
2022-10-04T06:49:46.393Z,2.20
2022-10-04T06:52:31.653Z,2.97
2022-10-04T06:55:41.567Z,2.13
2022-10-04T06:58:30.382Z,2.40
2022-10-04T07:01:03.253Z,2.13
2022-10-04T07:04:01.703Z,2.15
2022-10-04T07:06:37.648Z,2.05
2022-10-04T07:09:08.004Z,2.10
2022-10-04T07:11:43.419Z,1.95
2022-10-04T07:14:18.821Z,1.73
2022-10-04T07:16:57.029Z,1.77
2022-10-04T07:19:36.851Z,2.00
2022-10-04T07:22:15.240Z,2.03
2022-10-04T07:25:00.255Z,2.15
2022-10-04T07:27:42.363Z,1.92
2022-10-04T07:30:17.646Z,1.92
2022-10-04T07:32:46.906Z,2.00
2022-10-04T07:35:39.758Z,2.00
2022-10-04T07:38:18.313Z,2.15
2022-10-04T07:41:19.063Z,2.33
2022-10-04T07:43:56.219Z,2.28
2022-10-04T07:46:48.594Z,2.13
2022-10-04T07:49:21.788Z,2.33
2022-10-04T07:52:19.833Z,1.77
2022-10-04T07:55:06.930Z,2.25
2022-10-04T07:57:47.909Z,1.88
2022-10-04T08:00:20.339Z,2.20
2022-10-04T08:02:53.208Z,2.20
2022-10-04T08:05:36.599Z,2.42
2022-10-04T08:08:09.577Z,1.90
2022-10-04T08:11:12.890Z,2.28
2022-10-04T08:14:18.470Z,1.90
2022-10-04T08:16:45.671Z,2.35
2022-10-04T08:19:36.107Z,2.00
2022-10-04T08:22:15.673Z,1.77
2022-10-04T08:24:58.350Z,2.00
2022-10-04T08:28:22.234Z,1.85
2022-10-04T08:31:03.856Z,1.90
2022-10-04T08:34:08.422Z,2.03
2022-10-04T08:37:10.215Z,1.57
2022-10-04T08:39:40.065Z,1.70
2022-10-04T08:42:41.960Z,1.20
2022-10-04T08:45:35.050Z,1.50
2022-10-04T08:48:24.604Z,1.90
2022-10-04T08:51:25.151Z,1.40
2022-10-04T08:54:14.366Z,1.40
2022-10-04T08:56:57.996Z,0.90
2022-10-04T08:59:37.765Z,1.08
2022-10-04T09:02:23.332Z,1.08
2022-10-04T09:05:11.517Z,1.55
2022-10-04T09:07:51.994Z,1.00
2022-10-04T09:10:36.957Z,1.10
2022-10-04T09:13:22.415Z,1.00
2022-10-04T09:16:03.949Z,1.30
2022-10-04T09:18:56.243Z,0.98
2022-10-04T09:21:41.115Z,1.05
2022-10-04T09:24:34.981Z,0.90
2022-10-04T09:27:26.875Z,1.20
2022-10-04T09:30:04.593Z,0.98
2022-10-04T09:32:53.316Z,0.90
2022-10-04T09:35:47.398Z,1.00
2022-10-04T09:38:32.312Z,0.90
2022-10-04T09:41:17.255Z,1.20
2022-10-04T09:47:51.686Z,1.00
2022-10-04T09:50:55.943Z,0.80
2022-10-04T09:53:32.685Z,0.77
2022-10-04T09:56:26.978Z,0.80
2022-10-04T09:59:27.274Z,1.00
2022-10-04T10:02:31.103Z,0.70
2022-10-04T10:05:35.367Z,1.00
2022-10-04T10:08:36.587Z,1.00
2022-10-04T10:11:52.832Z,0.82
2022-10-04T10:14:31.208Z,0.80
2022-10-04T10:17:01.083Z,0.85
2022-10-04T10:19:39.753Z,0.60
2022-10-04T10:22:31.342Z,0.90
2022-10-04T10:25:35.807Z,0.90
2022-10-04T10:28:30.915Z,0.70
2022-10-04T10:31:11.619Z,0.70
2022-10-04T10:34:13.339Z,0.82
2022-10-04T10:37:10.670Z,0.80
2022-10-04T10:39:56.720Z,0.80
2022-10-04T10:42:47.064Z,0.80
2022-10-04T10:45:44.806Z,0.88
2022-10-04T10:48:22.372Z,0.80
2022-10-04T10:51:02.805Z,0.60
2022-10-04T10:54:00.623Z,0.90
2022-10-04T10:57:15.129Z,0.70
2022-10-04T10:59:50.559Z,0.70
2022-10-04T11:02:47.777Z,0.60
2022-10-04T11:05:44.070Z,0.93
2022-10-04T11:08:48.818Z,0.50
2022-10-04T11:11:34.021Z,0.82
2022-10-04T11:14:13.670Z,0.93
2022-10-04T11:17:04.124Z,0.70
2022-10-04T11:19:59.588Z,0.70
2022-10-04T11:23:00.657Z,0.70
2022-10-04T11:25:41.760Z,0.60
2022-10-04T11:32:18.221Z,0.80
2022-10-04T11:35:22.995Z,0.70
2022-10-04T11:37:53.768Z,0.60
2022-10-04T11:40:54.683Z,0.90
2022-10-04T11:43:21.558Z,0.82
2022-10-04T11:46:10.533Z,0.70
2022-10-04T11:48:59.765Z,0.70
2022-10-04T11:51:29.551Z,0.60
2022-10-04T11:54:03.621Z,0.90
2022-10-04T11:57:01.242Z,0.60
2022-10-04T12:00:16.858Z,0.75
2022-10-04T12:06:03.636Z,0.82
2022-10-04T12:08:36.228Z,0.60
2022-10-04T12:11:52.007Z,1.10
2022-10-04T12:14:31.051Z,1.15
2022-10-04T12:17:08.663Z,0.82
2022-10-04T12:20:12.234Z,0.63
2022-10-04T12:22:55.191Z,0.70
2022-10-04T12:25:56.235Z,0.50
2022-10-04T12:28:51.482Z,0.60
2022-10-04T12:31:32.775Z,0.60
2022-10-04T12:34:44.302Z,0.68
2022-10-04T12:37:42.899Z,0.50
2022-10-04T12:40:12.949Z,1.05
2022-10-04T12:42:52.750Z,0.90
2022-10-04T12:45:52.956Z,0.70
2022-10-04T12:48:49.032Z,0.80
2022-10-04T12:51:29.224Z,0.70
2022-10-04T12:54:03.574Z,0.90
2022-10-04T12:59:52.298Z,1.30
2022-10-04T13:03:02.749Z,0.90
2022-10-04T13:05:47.817Z,0.75
2022-10-04T13:08:48.695Z,1.13
2022-10-04T13:11:27.442Z,0.90
2022-10-04T13:14:26.010Z,0.70
2022-10-04T13:17:30.670Z,0.77
2022-10-04T13:20:11.994Z,0.77
2022-10-04T13:22:56.658Z,0.70
2022-10-04T13:25:36.621Z,0.60
2022-10-04T13:28:37.856Z,0.70
2022-10-04T13:31:27.811Z,0.50
2022-10-04T13:34:07.757Z,0.93
2022-10-04T13:36:59.143Z,0.75
2022-10-04T13:39:43.083Z,0.70
2022-10-04T13:42:21.835Z,0.75
2022-10-04T13:45:06.698Z,1.05
2022-10-04T13:47:48.256Z,1.05
2022-10-04T13:50:15.111Z,0.57
2022-10-04T13:53:26.957Z,0.70
2022-10-04T13:56:29.715Z,0.60
2022-10-04T13:59:05.206Z,0.80
2022-10-04T14:02:12.717Z,0.70
2022-10-04T14:05:19.001Z,0.95
2022-10-04T14:08:12.406Z,0.60
2022-10-04T14:11:18.245Z,0.63
2022-10-04T14:14:28.996Z,0.60
2022-10-04T14:17:23.616Z,0.80
2022-10-04T14:20:10.734Z,0.80
2022-10-04T14:22:53.960Z,0.60
2022-10-04T14:25:42.180Z,0.63
2022-10-04T14:28:27.207Z,2.13
2022-10-04T14:31:22.636Z,0.80
2022-10-04T14:34:10.943Z,0.60
2022-10-04T14:37:02.400Z,0.75
2022-10-04T14:39:47.793Z,0.88
2022-10-04T14:42:21.862Z,0.63
2022-10-04T14:44:58.736Z,0.63
2022-10-04T14:47:44.436Z,0.63
2022-10-04T14:50:30.744Z,0.80
2022-10-04T14:53:22.270Z,0.88
2022-10-04T14:56:12.980Z,0.80
2022-10-04T14:58:54.033Z,1.00
2022-10-04T15:01:27.964Z,0.75
2022-10-04T15:04:11.687Z,0.70
2022-10-04T15:06:50.043Z,1.03
2022-10-04T15:09:24.145Z,0.80
2022-10-04T15:12:51.765Z,0.80
2022-10-04T15:15:32.915Z,0.77
2022-10-04T15:18:22.846Z,1.02
2022-10-04T15:21:04.780Z,0.57
2022-10-04T15:23:48.482Z,0.90
2022-10-04T15:26:21.436Z,0.80
2022-10-04T15:28:54.084Z,1.15
2022-10-04T15:31:37.746Z,1.13
2022-10-04T15:34:38.922Z,0.97
2022-10-04T15:37:28.159Z,1.10
2022-10-04T15:40:09.827Z,1.00
2022-10-04T15:42:38.175Z,1.00
2022-10-04T15:45:34.545Z,1.20
2022-10-04T15:48:26.253Z,1.52
2022-10-04T15:51:18.268Z,1.50
2022-10-04T15:54:12.632Z,1.63
2022-10-04T15:56:40.561Z,1.40
2022-10-04T15:59:59.739Z,1.10
2022-10-04T16:03:01.239Z,1.30
2022-10-04T16:05:36.590Z,1.20
2022-10-04T16:08:42.181Z,1.30
2022-10-04T16:11:24.439Z,1.40
2022-10-04T16:13:51.225Z,1.40
2022-10-04T16:16:18.222Z,1.42
2022-10-04T16:19:37.195Z,1.20
2022-10-04T16:22:28.216Z,1.55
2022-10-04T16:25:19.431Z,1.60
2022-10-04T16:27:56.049Z,1.08
2022-10-04T16:30:43.448Z,1.55
2022-10-04T16:33:22.618Z,1.40
2022-10-04T16:36:21.999Z,1.73
2022-10-04T16:39:12.710Z,1.48
2022-10-04T16:42:03.714Z,1.38
2022-10-04T16:44:54.949Z,2.10
2022-10-04T16:47:56.870Z,1.63
2022-10-04T16:50:48.527Z,1.92
2022-10-04T16:53:41.114Z,1.40
2022-10-04T16:56:16.489Z,1.50
2022-10-04T16:58:52.802Z,1.40
2022-10-04T17:01:22.649Z,1.67
2022-10-04T17:03:54.137Z,1.80
2022-10-04T17:07:00.609Z,1.60
2022-10-04T17:09:36.349Z,1.77
2022-10-04T17:12:17.817Z,1.70
2022-10-04T17:15:19.963Z,1.80
2022-10-04T17:17:55.642Z,1.88
2022-10-04T17:20:31.687Z,2.13
2022-10-04T17:23:16.457Z,2.40
2022-10-04T17:28:32.934Z,2.40
2022-10-04T17:31:12.386Z,2.42
2022-10-04T17:34:14.999Z,2.50
2022-10-04T17:36:55.672Z,2.60
2022-10-04T17:39:59.077Z,2.60
2022-10-04T17:42:37.741Z,2.83
2022-10-04T17:45:04.516Z,2.95
2022-10-04T17:48:06.740Z,2.97
2022-10-04T17:50:57.493Z,3.60
2022-10-04T17:53:47.191Z,3.20
2022-10-04T17:56:22.341Z,3.30
2022-10-04T17:58:55.788Z,3.00
2022-10-04T18:01:28.446Z,3.42
2022-10-04T18:04:04.143Z,3.40
2022-10-04T18:06:56.826Z,3.42
2022-10-04T18:09:33.406Z,3.90
2022-10-04T18:12:21.458Z,4.03
2022-10-04T18:15:01.132Z,3.78
2022-10-04T18:17:54.505Z,4.57
2022-10-04T18:20:33.117Z,4.20
2022-10-04T18:23:17.391Z,5.32
2022-10-04T18:25:46.753Z,5.72
2022-10-04T18:28:20.964Z,4.60
2022-10-04T18:30:54.166Z,4.85
2022-10-04T18:33:26.952Z,5.95
2022-10-04T18:36:09.682Z,5.10
2022-10-04T18:38:36.943Z,5.38
2022-10-04T18:41:19.532Z,5.60
2022-10-04T18:43:53.447Z,4.85
2022-10-04T18:46:26.003Z,5.00
2022-10-04T18:49:09.504Z,5.30
2022-10-04T18:51:47.743Z,4.90
2022-10-04T18:54:33.366Z,5.03
2022-10-04T18:57:04.033Z,6.13
2022-10-04T19:00:12.176Z,5.22
2022-10-04T19:02:56.237Z,5.22
2022-10-04T19:05:43.238Z,5.20
2022-10-04T19:08:30.065Z,5.10
2022-10-04T19:11:21.316Z,6.35
2022-10-04T19:14:18.698Z,5.28
2022-10-04T19:16:58.627Z,5.60
2022-10-04T19:19:54.079Z,5.15
2022-10-04T19:22:24.579Z,6.20
2022-10-04T19:25:25.093Z,5.55
2022-10-04T19:28:07.579Z,5.05
2022-10-04T19:30:44.443Z,5.20
2022-10-04T19:33:30.896Z,5.63
2022-10-04T19:36:20.640Z,5.93
2022-10-04T19:39:15.971Z,5.18
2022-10-04T19:41:51.698Z,5.18
2022-10-04T19:44:24.466Z,5.60
2022-10-04T19:46:57.611Z,5.72
2022-10-04T19:49:49.677Z,4.80
2022-10-04T19:52:38.557Z,5.85
2022-10-04T19:55:40.479Z,5.47
2022-10-04T19:58:24.460Z,6.07
2022-10-04T20:00:51.485Z,7.05
2022-10-04T20:03:18.571Z,5.70
2022-10-04T20:05:47.882Z,4.85
2022-10-04T20:08:17.486Z,5.25
2022-10-04T20:10:44.565Z,5.28
2022-10-04T20:13:13.649Z,4.50
2022-10-04T20:15:40.508Z,4.85
2022-10-04T20:18:31.974Z,4.57
2022-10-04T20:21:00.300Z,4.90
2022-10-04T20:23:39.390Z,5.03
2022-10-04T20:26:07.407Z,4.97
2022-10-04T20:28:38.762Z,5.47
2022-10-04T20:31:07.351Z,6.78
2022-10-04T20:33:34.220Z,5.25
2022-10-04T20:36:02.270Z,5.13
2022-10-04T20:38:48.785Z,4.93
2022-10-04T20:41:49.348Z,5.32
2022-10-04T20:44:44.275Z,5.28
2022-10-04T20:47:41.702Z,4.95
2022-10-04T20:50:16.449Z,5.93
2022-10-04T20:52:49.912Z,4.53
2022-10-04T20:55:39.073Z,5.03
2022-10-04T20:58:23.812Z,5.20
2022-10-04T21:01:16.921Z,5.32
2022-10-04T21:03:44.153Z,5.68
2022-10-04T21:06:12.056Z,5.20
2022-10-04T21:08:41.023Z,5.03
2022-10-04T21:11:33.726Z,5.25
2022-10-04T21:18:00.623Z,5.35
2022-10-04T21:20:48.265Z,5.40
2022-10-04T21:23:30.379Z,5.25
2022-10-04T21:26:19.906Z,4.53
2022-10-04T21:28:48.085Z,6.07
2022-10-04T21:35:03.814Z,4.90
2022-10-04T21:37:31.449Z,5.63
2022-10-04T21:39:58.571Z,7.15
2022-10-04T21:46:06.248Z,5.10
2022-10-04T21:48:33.177Z,6.32
2022-10-04T21:51:00.092Z,5.38
2022-10-04T21:53:27.032Z,4.60
2022-10-04T21:55:54.105Z,5.00
2022-10-04T21:58:21.432Z,5.05
2022-10-04T22:00:48.408Z,4.50
2022-10-04T22:03:15.328Z,4.53
2022-10-04T22:05:42.205Z,5.00
2022-10-04T22:08:09.188Z,4.25
2022-10-04T22:10:36.446Z,4.95
2022-10-04T22:13:03.337Z,4.43
2022-10-04T22:15:30.328Z,4.40
2022-10-04T22:17:57.368Z,4.20
2022-10-04T22:20:25.061Z,5.28
2022-10-04T22:22:52.778Z,4.47
2022-10-04T22:25:21.784Z,4.35
2022-10-04T22:27:49.525Z,4.93
2022-10-04T22:30:28.974Z,5.25
2022-10-04T22:32:58.035Z,4.53
2022-10-04T22:35:25.315Z,4.35
2022-10-04T22:37:52.458Z,5.70
2022-10-04T22:40:23.428Z,4.55
2022-10-04T22:42:55.548Z,4.55
2022-10-04T22:45:24.526Z,4.72
2022-10-04T22:47:52.186Z,5.00
2022-10-04T22:50:39.655Z,4.97
2022-10-04T22:53:20.792Z,4.75
2022-10-04T22:55:52.350Z,4.93
2022-10-04T22:58:21.181Z,5.30
2022-10-04T23:00:49.385Z,4.75
2022-10-04T23:03:34.331Z,5.55
2022-10-04T23:06:02.974Z,5.90
2022-10-04T23:08:30.312Z,5.55
2022-10-04T23:10:59.037Z,4.97
2022-10-04T23:13:27.642Z,4.70
2022-10-04T23:16:00.128Z,5.03
2022-10-04T23:18:28.528Z,5.25
2022-10-04T23:21:00.423Z,5.30
2022-10-04T23:23:28.688Z,5.57
2022-10-04T23:25:55.924Z,6.05
2022-10-04T23:28:23.662Z,5.47
2022-10-04T23:31:22.807Z,5.40
2022-10-04T23:33:51.255Z,6.03
2022-10-04T23:36:18.784Z,5.75
2022-10-04T23:38:53.698Z,6.65
2022-10-04T23:41:20.922Z,6.35
2022-10-04T23:43:49.176Z,6.22
2022-10-04T23:46:20.488Z,6.07
2022-10-04T23:48:48.920Z,5.60
2022-10-04T23:51:19.389Z,5.55
2022-10-04T23:53:49.250Z,5.55
2022-10-04T23:56:25.144Z,5.07
2022-10-04T23:58:54.706Z,5.25
